sensor_id;sensor_type;location;lat;lon;timestamp;P1;durP1;ratioP1;P2;durP2;ratioP2
18748;SDS011;9503;53.560;10.246;2022-08-21T00:02:25;6.67;;;4.70;;
18748;SDS011;9503;53.560;10.246;2022-08-21T00:04:53;8.87;;;4.60;;
18748;SDS011;9503;53.560;10.246;2022-08-21T00:07:20;7.50;;;4.67;;
18748;SDS011;9503;53.560;10.246;2022-08-21T00:09:47;7.23;;;4.47;;
18748;SDS011;9503;53.560;10.246;2022-08-21T00:12:15;6.37;;;4.40;;
18748;SDS011;9503;53.560;10.246;2022-08-21T00:14:42;6.27;;;4.57;;
18748;SDS011;9503;53.560;10.246;2022-08-21T00:17:12;6.70;;;4.17;;
18748;SDS011;9503;53.560;10.246;2022-08-21T00:19:39;6.37;;;4.23;;
18748;SDS011;9503;53.560;10.246;2022-08-21T00:22:05;7.20;;;4.53;;
18748;SDS011;9503;53.560;10.246;2022-08-21T00:24:32;7.90;;;4.33;;
18748;SDS011;9503;53.560;10.246;2022-08-21T00:26:59;8.20;;;4.70;;
18748;SDS011;9503;53.560;10.246;2022-08-21T00:29:27;6.43;;;4.13;;
18748;SDS011;9503;53.560;10.246;2022-08-21T00:31:54;7.30;;;4.37;;
18748;SDS011;9503;53.560;10.246;2022-08-21T00:34:21;4.90;;;4.00;;
18748;SDS011;9503;53.560;10.246;2022-08-21T00:36:47;4.93;;;3.90;;
18748;SDS011;9503;53.560;10.246;2022-08-21T00:39:14;4.73;;;4.23;;
18748;SDS011;9503;53.560;10.246;2022-08-21T00:41:41;8.10;;;4.30;;
18748;SDS011;9503;53.560;10.246;2022-08-21T00:44:09;7.23;;;4.10;;
18748;SDS011;9503;53.560;10.246;2022-08-21T00:46:40;7.20;;;3.93;;
18748;SDS011;9503;53.560;10.246;2022-08-21T00:49:09;10.23;;;4.80;;
18748;SDS011;9503;53.560;10.246;2022-08-21T00:51:39;7.23;;;4.40;;
18748;SDS011;9503;53.560;10.246;2022-08-21T00:54:10;5.40;;;4.37;;
18748;SDS011;9503;53.560;10.246;2022-08-21T00:56:38;8.87;;;3.93;;
18748;SDS011;9503;53.560;10.246;2022-08-21T00:59:06;6.77;;;4.00;;
18748;SDS011;9503;53.560;10.246;2022-08-21T01:01:33;5.77;;;4.50;;
18748;SDS011;9503;53.560;10.246;2022-08-21T01:04:01;4.30;;;3.43;;
18748;SDS011;9503;53.560;10.246;2022-08-21T01:06:28;9.27;;;3.90;;
18748;SDS011;9503;53.560;10.246;2022-08-21T01:08:55;6.10;;;3.90;;
18748;SDS011;9503;53.560;10.246;2022-08-21T01:11:22;5.33;;;4.13;;
18748;SDS011;9503;53.560;10.246;2022-08-21T01:13:49;7.37;;;3.97;;
18748;SDS011;9503;53.560;10.246;2022-08-21T01:16:17;8.30;;;4.40;;
18748;SDS011;9503;53.560;10.246;2022-08-21T01:18:46;8.23;;;4.30;;
18748;SDS011;9503;53.560;10.246;2022-08-21T01:21:16;7.27;;;4.50;;
18748;SDS011;9503;53.560;10.246;2022-08-21T01:23:45;7.77;;;4.17;;
18748;SDS011;9503;53.560;10.246;2022-08-21T01:26:15;7.37;;;4.50;;
18748;SDS011;9503;53.560;10.246;2022-08-21T01:28:45;10.73;;;4.23;;
18748;SDS011;9503;53.560;10.246;2022-08-21T01:31:15;6.27;;;3.93;;
18748;SDS011;9503;53.560;10.246;2022-08-21T01:33:46;5.27;;;3.83;;
18748;SDS011;9503;53.560;10.246;2022-08-21T01:36:12;9.07;;;4.10;;
18748;SDS011;9503;53.560;10.246;2022-08-21T01:38:41;9.30;;;4.13;;
18748;SDS011;9503;53.560;10.246;2022-08-21T01:41:07;8.40;;;4.47;;
18748;SDS011;9503;53.560;10.246;2022-08-21T01:43:34;8.93;;;4.30;;
18748;SDS011;9503;53.560;10.246;2022-08-21T01:46:01;7.80;;;4.13;;
18748;SDS011;9503;53.560;10.246;2022-08-21T01:48:29;9.87;;;5.17;;
18748;SDS011;9503;53.560;10.246;2022-08-21T01:50:55;8.70;;;4.13;;
18748;SDS011;9503;53.560;10.246;2022-08-21T01:53:24;6.93;;;4.10;;
18748;SDS011;9503;53.560;10.246;2022-08-21T01:55:51;6.83;;;4.50;;
18748;SDS011;9503;53.560;10.246;2022-08-21T01:58:17;7.13;;;4.53;;
18748;SDS011;9503;53.560;10.246;2022-08-21T02:00:44;5.90;;;4.30;;
18748;SDS011;9503;53.560;10.246;2022-08-21T02:03:11;9.57;;;4.20;;
18748;SDS011;9503;53.560;10.246;2022-08-21T02:05:38;8.07;;;4.83;;
18748;SDS011;9503;53.560;10.246;2022-08-21T02:08:05;7.30;;;4.27;;
18748;SDS011;9503;53.560;10.246;2022-08-21T02:10:33;7.60;;;4.87;;
18748;SDS011;9503;53.560;10.246;2022-08-21T02:13:00;8.50;;;5.10;;
18748;SDS011;9503;53.560;10.246;2022-08-21T02:15:27;10.73;;;4.63;;
18748;SDS011;9503;53.560;10.246;2022-08-21T02:17:55;6.33;;;3.83;;
18748;SDS011;9503;53.560;10.246;2022-08-21T02:20:25;5.60;;;4.30;;
18748;SDS011;9503;53.560;10.246;2022-08-21T02:22:53;6.20;;;4.13;;
18748;SDS011;9503;53.560;10.246;2022-08-21T02:25:21;6.93;;;4.40;;
18748;SDS011;9503;53.560;10.246;2022-08-21T02:27:51;8.23;;;4.73;;
18748;SDS011;9503;53.560;10.246;2022-08-21T02:30:19;7.60;;;4.67;;
18748;SDS011;9503;53.560;10.246;2022-08-21T02:32:48;7.40;;;4.60;;
18748;SDS011;9503;53.560;10.246;2022-08-21T02:35:15;9.53;;;4.90;;
18748;SDS011;9503;53.560;10.246;2022-08-21T02:37:45;5.10;;;4.43;;
18748;SDS011;9503;53.560;10.246;2022-08-21T02:40:14;6.83;;;4.63;;
18748;SDS011;9503;53.560;10.246;2022-08-21T02:42:43;8.50;;;4.90;;
18748;SDS011;9503;53.560;10.246;2022-08-21T02:45:11;7.10;;;4.67;;
18748;SDS011;9503;53.560;10.246;2022-08-21T02:47:38;6.67;;;4.70;;
18748;SDS011;9503;53.560;10.246;2022-08-21T02:50:06;7.47;;;4.97;;
18748;SDS011;9503;53.560;10.246;2022-08-21T02:52:34;8.73;;;4.70;;
18748;SDS011;9503;53.560;10.246;2022-08-21T02:55:01;6.63;;;4.73;;
18748;SDS011;9503;53.560;10.246;2022-08-21T02:57:29;13.70;;;5.90;;
18748;SDS011;9503;53.560;10.246;2022-08-21T02:59:57;7.20;;;4.93;;
18748;SDS011;9503;53.560;10.246;2022-08-21T03:02:26;8.27;;;4.87;;
18748;SDS011;9503;53.560;10.246;2022-08-21T03:04:53;10.17;;;5.77;;
18748;SDS011;9503;53.560;10.246;2022-08-21T03:07:19;10.53;;;5.30;;
18748;SDS011;9503;53.560;10.246;2022-08-21T03:09:46;10.23;;;5.63;;
18748;SDS011;9503;53.560;10.246;2022-08-21T03:12:13;6.70;;;5.00;;
18748;SDS011;9503;53.560;10.246;2022-08-21T03:14:40;10.57;;;5.60;;
18748;SDS011;9503;53.560;10.246;2022-08-21T03:17:07;12.47;;;5.40;;
18748;SDS011;9503;53.560;10.246;2022-08-21T03:19:35;11.47;;;5.70;;
18748;SDS011;9503;53.560;10.246;2022-08-21T03:22:02;12.23;;;5.63;;
18748;SDS011;9503;53.560;10.246;2022-08-21T03:24:29;5.87;;;4.80;;
18748;SDS011;9503;53.560;10.246;2022-08-21T03:26:55;12.60;;;5.80;;
18748;SDS011;9503;53.560;10.246;2022-08-21T03:29:22;9.17;;;5.70;;
18748;SDS011;9503;53.560;10.246;2022-08-21T03:31:49;8.30;;;5.07;;
18748;SDS011;9503;53.560;10.246;2022-08-21T03:34:17;12.80;;;5.33;;
18748;SDS011;9503;53.560;10.246;2022-08-21T03:36:45;8.20;;;5.13;;
18748;SDS011;9503;53.560;10.246;2022-08-21T03:39:12;9.10;;;4.50;;
18748;SDS011;9503;53.560;10.246;2022-08-21T03:41:40;8.20;;;4.53;;
18748;SDS011;9503;53.560;10.246;2022-08-21T03:44:06;8.17;;;5.30;;
18748;SDS011;9503;53.560;10.246;2022-08-21T03:46:33;6.23;;;4.97;;
18748;SDS011;9503;53.560;10.246;2022-08-21T03:49:00;7.83;;;4.43;;
18748;SDS011;9503;53.560;10.246;2022-08-21T03:51:27;5.07;;;4.57;;
18748;SDS011;9503;53.560;10.246;2022-08-21T03:53:56;10.53;;;4.70;;
18748;SDS011;9503;53.560;10.246;2022-08-21T03:56:23;10.20;;;5.13;;
18748;SDS011;9503;53.560;10.246;2022-08-21T03:58:49;7.03;;;5.30;;
18748;SDS011;9503;53.560;10.246;2022-08-21T04:01:16;9.80;;;4.80;;
18748;SDS011;9503;53.560;10.246;2022-08-21T04:03:43;8.67;;;5.80;;
18748;SDS011;9503;53.560;10.246;2022-08-21T04:06:10;10.40;;;5.60;;
18748;SDS011;9503;53.560;10.246;2022-08-21T04:08:37;8.00;;;5.63;;
18748;SDS011;9503;53.560;10.246;2022-08-21T04:11:05;7.27;;;5.13;;
18748;SDS011;9503;53.560;10.246;2022-08-21T04:13:35;10.33;;;5.27;;
18748;SDS011;9503;53.560;10.246;2022-08-21T04:16:02;11.23;;;5.50;;
18748;SDS011;9503;53.560;10.246;2022-08-21T04:18:29;8.67;;;5.70;;
18748;SDS011;9503;53.560;10.246;2022-08-21T04:20:56;8.43;;;5.37;;
18748;SDS011;9503;53.560;10.246;2022-08-21T04:23:26;6.97;;;5.70;;
18748;SDS011;9503;53.560;10.246;2022-08-21T04:25:53;12.63;;;5.93;;
18748;SDS011;9503;53.560;10.246;2022-08-21T04:28:23;9.87;;;4.90;;
18748;SDS011;9503;53.560;10.246;2022-08-21T04:30:51;8.73;;;4.90;;
18748;SDS011;9503;53.560;10.246;2022-08-21T04:33:18;7.13;;;5.20;;
18748;SDS011;9503;53.560;10.246;2022-08-21T04:35:45;9.03;;;5.40;;
18748;SDS011;9503;53.560;10.246;2022-08-21T04:38:12;13.53;;;5.80;;
18748;SDS011;9503;53.560;10.246;2022-08-21T04:40:39;7.63;;;5.60;;
18748;SDS011;9503;53.560;10.246;2022-08-21T04:43:06;13.80;;;5.77;;
18748;SDS011;9503;53.560;10.246;2022-08-21T04:45:40;9.27;;;6.10;;
18748;SDS011;9503;53.560;10.246;2022-08-21T04:48:10;11.73;;;6.50;;
18748;SDS011;9503;53.560;10.246;2022-08-21T04:50:39;12.47;;;7.03;;
18748;SDS011;9503;53.560;10.246;2022-08-21T04:53:10;15.37;;;6.80;;
18748;SDS011;9503;53.560;10.246;2022-08-21T04:55:42;8.27;;;6.83;;
18748;SDS011;9503;53.560;10.246;2022-08-21T04:58:09;15.67;;;7.83;;
18748;SDS011;9503;53.560;10.246;2022-08-21T05:00:40;11.80;;;7.20;;
18748;SDS011;9503;53.560;10.246;2022-08-21T05:03:07;9.70;;;6.70;;
18748;SDS011;9503;53.560;10.246;2022-08-21T05:05:35;12.03;;;6.67;;
18748;SDS011;9503;53.560;10.246;2022-08-21T05:08:03;10.57;;;6.70;;
18748;SDS011;9503;53.560;10.246;2022-08-21T05:10:33;9.53;;;7.33;;
18748;SDS011;9503;53.560;10.246;2022-08-21T05:13:03;9.73;;;6.70;;
18748;SDS011;9503;53.560;10.246;2022-08-21T05:15:32;11.80;;;6.50;;
18748;SDS011;9503;53.560;10.246;2022-08-21T05:18:00;12.27;;;6.90;;
18748;SDS011;9503;53.560;10.246;2022-08-21T05:20:27;12.50;;;6.77;;
18748;SDS011;9503;53.560;10.246;2022-08-21T05:22:54;12.17;;;6.27;;
18748;SDS011;9503;53.560;10.246;2022-08-21T05:25:20;11.43;;;6.20;;
18748;SDS011;9503;53.560;10.246;2022-08-21T05:27:47;11.50;;;6.17;;
18748;SDS011;9503;53.560;10.246;2022-08-21T05:30:14;10.07;;;5.50;;
18748;SDS011;9503;53.560;10.246;2022-08-21T05:32:41;7.93;;;6.00;;
18748;SDS011;9503;53.560;10.246;2022-08-21T05:35:09;9.60;;;5.43;;
18748;SDS011;9503;53.560;10.246;2022-08-21T05:37:36;9.97;;;5.30;;
18748;SDS011;9503;53.560;10.246;2022-08-21T05:40:03;7.90;;;4.37;;
18748;SDS011;9503;53.560;10.246;2022-08-21T05:42:32;5.43;;;4.80;;
18748;SDS011;9503;53.560;10.246;2022-08-21T05:44:58;5.73;;;4.23;;
18748;SDS011;9503;53.560;10.246;2022-08-21T05:47:25;7.00;;;4.33;;
18748;SDS011;9503;53.560;10.246;2022-08-21T05:49:55;10.37;;;5.30;;
18748;SDS011;9503;53.560;10.246;2022-08-21T05:52:23;8.37;;;4.23;;
18748;SDS011;9503;53.560;10.246;2022-08-21T05:54:50;11.20;;;4.37;;
18748;SDS011;9503;53.560;10.246;2022-08-21T05:57:19;7.67;;;4.23;;
18748;SDS011;9503;53.560;10.246;2022-08-21T05:59:46;6.00;;;3.73;;
18748;SDS011;9503;53.560;10.246;2022-08-21T06:02:12;6.40;;;3.83;;
18748;SDS011;9503;53.560;10.246;2022-08-21T06:04:39;6.13;;;3.33;;
18748;SDS011;9503;53.560;10.246;2022-08-21T06:07:06;7.95;;;3.90;;
18748;SDS011;9503;53.560;10.246;2022-08-21T06:09:34;5.53;;;3.17;;
18748;SDS011;9503;53.560;10.246;2022-08-21T06:12:03;8.25;;;3.22;;
18748;SDS011;9503;53.560;10.246;2022-08-21T06:14:30;7.38;;;2.83;;
18748;SDS011;9503;53.560;10.246;2022-08-21T06:17:01;5.32;;;3.17;;
18748;SDS011;9503;53.560;10.246;2022-08-21T06:19:28;8.35;;;2.70;;
18748;SDS011;9503;53.560;10.246;2022-08-21T06:21:55;5.97;;;2.90;;
18748;SDS011;9503;53.560;10.246;2022-08-21T06:24:22;4.07;;;2.67;;
18748;SDS011;9503;53.560;10.246;2022-08-21T06:26:50;5.70;;;2.85;;
18748;SDS011;9503;53.560;10.246;2022-08-21T06:29:17;6.40;;;2.95;;
18748;SDS011;9503;53.560;10.246;2022-08-21T06:31:45;5.53;;;2.72;;
18748;SDS011;9503;53.560;10.246;2022-08-21T06:34:12;7.55;;;3.10;;
18748;SDS011;9503;53.560;10.246;2022-08-21T06:36:39;9.45;;;2.55;;
18748;SDS011;9503;53.560;10.246;2022-08-21T06:39:06;6.25;;;2.70;;
18748;SDS011;9503;53.560;10.246;2022-08-21T06:41:33;6.63;;;2.65;;
18748;SDS011;9503;53.560;10.246;2022-08-21T06:44:01;4.38;;;2.53;;
18748;SDS011;9503;53.560;10.246;2022-08-21T06:46:29;5.18;;;2.53;;
18748;SDS011;9503;53.560;10.246;2022-08-21T06:48:57;5.20;;;2.72;;
18748;SDS011;9503;53.560;10.246;2022-08-21T06:51:24;7.15;;;3.28;;
18748;SDS011;9503;53.560;10.246;2022-08-21T06:53:54;5.38;;;2.60;;
18748;SDS011;9503;53.560;10.246;2022-08-21T06:56:23;4.43;;;2.42;;
18748;SDS011;9503;53.560;10.246;2022-08-21T06:58:49;5.72;;;2.83;;
18748;SDS011;9503;53.560;10.246;2022-08-21T07:01:18;3.25;;;2.58;;
18748;SDS011;9503;53.560;10.246;2022-08-21T07:03:46;4.03;;;2.63;;
18748;SDS011;9503;53.560;10.246;2022-08-21T07:06:12;4.88;;;2.88;;
18748;SDS011;9503;53.560;10.246;2022-08-21T07:08:39;5.97;;;2.80;;
18748;SDS011;9503;53.560;10.246;2022-08-21T07:11:07;8.63;;;3.08;;
18748;SDS011;9503;53.560;10.246;2022-08-21T07:13:40;8.68;;;2.80;;
18748;SDS011;9503;53.560;10.246;2022-08-21T07:16:07;5.53;;;2.90;;
18748;SDS011;9503;53.560;10.246;2022-08-21T07:18:35;6.72;;;2.70;;
18748;SDS011;9503;53.560;10.246;2022-08-21T07:21:02;3.90;;;2.60;;
18748;SDS011;9503;53.560;10.246;2022-08-21T07:23:31;6.95;;;2.58;;
18748;SDS011;9503;53.560;10.246;2022-08-21T07:26:01;6.35;;;2.40;;
18748;SDS011;9503;53.560;10.246;2022-08-21T07:28:28;5.00;;;2.72;;
18748;SDS011;9503;53.560;10.246;2022-08-21T07:30:56;6.03;;;2.45;;
18748;SDS011;9503;53.560;10.246;2022-08-21T07:33:24;3.97;;;2.47;;
18748;SDS011;9503;53.560;10.246;2022-08-21T07:35:53;3.90;;;2.20;;
18748;SDS011;9503;53.560;10.246;2022-08-21T07:38:20;7.72;;;2.85;;
18748;SDS011;9503;53.560;10.246;2022-08-21T07:40:47;5.07;;;2.20;;
18748;SDS011;9503;53.560;10.246;2022-08-21T07:43:15;2.75;;;2.08;;
18748;SDS011;9503;53.560;10.246;2022-08-21T07:45:43;4.90;;;2.15;;
18748;SDS011;9503;53.560;10.246;2022-08-21T07:48:10;3.40;;;2.03;;
18748;SDS011;9503;53.560;10.246;2022-08-21T07:50:37;4.13;;;2.47;;
18748;SDS011;9503;53.560;10.246;2022-08-21T07:53:05;3.30;;;1.92;;
18748;SDS011;9503;53.560;10.246;2022-08-21T07:55:32;6.63;;;2.20;;
18748;SDS011;9503;53.560;10.246;2022-08-21T07:57:59;2.42;;;2.13;;
18748;SDS011;9503;53.560;10.246;2022-08-21T08:00:27;6.30;;;2.35;;
18748;SDS011;9503;53.560;10.246;2022-08-21T08:02:54;4.82;;;1.92;;
18748;SDS011;9503;53.560;10.246;2022-08-21T08:05:22;3.42;;;1.90;;
18748;SDS011;9503;53.560;10.246;2022-08-21T08:07:51;4.95;;;2.35;;
18748;SDS011;9503;53.560;10.246;2022-08-21T08:10:20;2.90;;;2.08;;
18748;SDS011;9503;53.560;10.246;2022-08-21T08:12:47;6.03;;;1.95;;
18748;SDS011;9503;53.560;10.246;2022-08-21T08:15:17;4.25;;;2.03;;
18748;SDS011;9503;53.560;10.246;2022-08-21T08:17:45;2.83;;;2.13;;
18748;SDS011;9503;53.560;10.246;2022-08-21T08:20:13;4.38;;;2.03;;
18748;SDS011;9503;53.560;10.246;2022-08-21T08:22:41;4.38;;;2.05;;
18748;SDS011;9503;53.560;10.246;2022-08-21T08:25:09;4.65;;;2.03;;
18748;SDS011;9503;53.560;10.246;2022-08-21T08:27:40;5.00;;;2.30;;
18748;SDS011;9503;53.560;10.246;2022-08-21T08:30:08;2.78;;;1.80;;
18748;SDS011;9503;53.560;10.246;2022-08-21T08:32:36;4.35;;;2.00;;
18748;SDS011;9503;53.560;10.246;2022-08-21T08:35:04;4.30;;;2.05;;
18748;SDS011;9503;53.560;10.246;2022-08-21T08:37:32;4.75;;;2.15;;
18748;SDS011;9503;53.560;10.246;2022-08-21T08:39:59;7.90;;;2.20;;
18748;SDS011;9503;53.560;10.246;2022-08-21T08:42:27;4.53;;;2.40;;
18748;SDS011;9503;53.560;10.246;2022-08-21T08:45:00;3.20;;;2.10;;
18748;SDS011;9503;53.560;10.246;2022-08-21T08:47:30;4.05;;;2.20;;
18748;SDS011;9503;53.560;10.246;2022-08-21T08:50:00;4.40;;;1.92;;
18748;SDS011;9503;53.560;10.246;2022-08-21T08:52:31;3.17;;;2.00;;
18748;SDS011;9503;53.560;10.246;2022-08-21T08:55:02;10.98;;;2.75;;
18748;SDS011;9503;53.560;10.246;2022-08-21T08:57:31;4.32;;;1.98;;
18748;SDS011;9503;53.560;10.246;2022-08-21T09:00:04;5.72;;;2.20;;
18748;SDS011;9503;53.560;10.246;2022-08-21T09:02:33;5.03;;;2.55;;
18748;SDS011;9503;53.560;10.246;2022-08-21T09:05:00;4.95;;;2.15;;
18748;SDS011;9503;53.560;10.246;2022-08-21T09:07:30;6.10;;;2.00;;
18748;SDS011;9503;53.560;10.246;2022-08-21T09:10:10;4.18;;;2.28;;
18748;SDS011;9503;53.560;10.246;2022-08-21T09:12:45;5.82;;;2.22;;
18748;SDS011;9503;53.560;10.246;2022-08-21T09:15:22;7.55;;;2.17;;
18748;SDS011;9503;53.560;10.246;2022-08-21T09:17:59;7.05;;;2.10;;
18748;SDS011;9503;53.560;10.246;2022-08-21T09:20:38;8.23;;;2.10;;
18748;SDS011;9503;53.560;10.246;2022-08-21T09:23:16;10.32;;;2.60;;
18748;SDS011;9503;53.560;10.246;2022-08-21T09:25:53;5.80;;;1.90;;
18748;SDS011;9503;53.560;10.246;2022-08-21T09:28:24;5.25;;;2.33;;
18748;SDS011;9503;53.560;10.246;2022-08-21T09:30:55;8.55;;;2.55;;
18748;SDS011;9503;53.560;10.246;2022-08-21T09:33:27;8.80;;;2.53;;
18748;SDS011;9503;53.560;10.246;2022-08-21T09:35:55;4.60;;;2.22;;
18748;SDS011;9503;53.560;10.246;2022-08-21T09:38:25;4.70;;;2.05;;
18748;SDS011;9503;53.560;10.246;2022-08-21T09:40:58;5.28;;;2.80;;
18748;SDS011;9503;53.560;10.246;2022-08-21T09:43:27;4.32;;;2.40;;
18748;SDS011;9503;53.560;10.246;2022-08-21T09:46:03;7.60;;;2.20;;
18748;SDS011;9503;53.560;10.246;2022-08-21T09:48:39;12.07;;;2.58;;
18748;SDS011;9503;53.560;10.246;2022-08-21T09:51:08;7.47;;;2.40;;
18748;SDS011;9503;53.560;10.246;2022-08-21T09:53:39;9.00;;;2.45;;
18748;SDS011;9503;53.560;10.246;2022-08-21T09:56:16;6.13;;;2.47;;
18748;SDS011;9503;53.560;10.246;2022-08-21T09:59:12;6.60;;;2.28;;
18748;SDS011;9503;53.560;10.246;2022-08-21T10:01:43;3.83;;;2.33;;
18748;SDS011;9503;53.560;10.246;2022-08-21T10:04:11;7.00;;;2.70;;
18748;SDS011;9503;53.560;10.246;2022-08-21T10:06:39;8.10;;;2.65;;
18748;SDS011;9503;53.560;10.246;2022-08-21T10:09:10;5.25;;;2.10;;
18748;SDS011;9503;53.560;10.246;2022-08-21T10:11:40;6.30;;;2.35;;
18748;SDS011;9503;53.560;10.246;2022-08-21T10:14:15;6.47;;;2.50;;
18748;SDS011;9503;53.560;10.246;2022-08-21T10:16:52;9.00;;;2.72;;
18748;SDS011;9503;53.560;10.246;2022-08-21T10:19:26;5.43;;;2.50;;
18748;SDS011;9503;53.560;10.246;2022-08-21T10:22:04;6.15;;;2.70;;
18748;SDS011;9503;53.560;10.246;2022-08-21T10:24:42;9.48;;;2.58;;
18748;SDS011;9503;53.560;10.246;2022-08-21T10:27:16;5.18;;;2.15;;
18748;SDS011;9503;53.560;10.246;2022-08-21T10:29:54;6.65;;;2.45;;
18748;SDS011;9503;53.560;10.246;2022-08-21T10:32:43;7.18;;;2.67;;
18748;SDS011;9503;53.560;10.246;2022-08-21T10:35:21;6.68;;;2.35;;
18748;SDS011;9503;53.560;10.246;2022-08-21T10:40:58;6.85;;;2.45;;
18748;SDS011;9503;53.560;10.246;2022-08-21T10:43:38;7.97;;;2.33;;
18748;SDS011;9503;53.560;10.246;2022-08-21T10:46:19;7.82;;;2.97;;
18748;SDS011;9503;53.560;10.246;2022-08-21T10:49:03;9.20;;;2.95;;
18748;SDS011;9503;53.560;10.246;2022-08-21T10:51:40;9.07;;;2.78;;
18748;SDS011;9503;53.560;10.246;2022-08-21T10:54:17;5.55;;;2.50;;
18748;SDS011;9503;53.560;10.246;2022-08-21T10:56:54;6.85;;;2.80;;
18748;SDS011;9503;53.560;10.246;2022-08-21T10:59:25;5.75;;;2.58;;
18748;SDS011;9503;53.560;10.246;2022-08-21T11:01:56;4.07;;;2.40;;
18748;SDS011;9503;53.560;10.246;2022-08-21T11:04:31;6.85;;;2.53;;
18748;SDS011;9503;53.560;10.246;2022-08-21T11:07:03;5.95;;;2.58;;
18748;SDS011;9503;53.560;10.246;2022-08-21T11:09:37;5.43;;;2.60;;
18748;SDS011;9503;53.560;10.246;2022-08-21T11:12:10;8.10;;;2.15;;
18748;SDS011;9503;53.560;10.246;2022-08-21T11:14:47;4.57;;;2.15;;
18748;SDS011;9503;53.560;10.246;2022-08-21T11:17:20;8.38;;;2.30;;
18748;SDS011;9503;53.560;10.246;2022-08-21T11:19:58;9.50;;;2.40;;
18748;SDS011;9503;53.560;10.246;2022-08-21T11:22:32;5.85;;;2.10;;
18748;SDS011;9503;53.560;10.246;2022-08-21T11:25:06;4.20;;;2.28;;
18748;SDS011;9503;53.560;10.246;2022-08-21T11:27:39;6.07;;;1.98;;
18748;SDS011;9503;53.560;10.246;2022-08-21T11:30:09;5.28;;;2.00;;
18748;SDS011;9503;53.560;10.246;2022-08-21T11:32:50;5.63;;;2.40;;
18748;SDS011;9503;53.560;10.246;2022-08-21T11:35:37;4.50;;;2.20;;
18748;SDS011;9503;53.560;10.246;2022-08-21T11:38:13;5.28;;;2.28;;
18748;SDS011;9503;53.560;10.246;2022-08-21T11:41:02;3.50;;;2.28;;
18748;SDS011;9503;53.560;10.246;2022-08-21T11:43:38;3.55;;;1.85;;
18748;SDS011;9503;53.560;10.246;2022-08-21T11:46:11;6.30;;;2.30;;
18748;SDS011;9503;53.560;10.246;2022-08-21T11:48:47;5.80;;;2.25;;
18748;SDS011;9503;53.560;10.246;2022-08-21T11:51:26;6.40;;;2.40;;
18748;SDS011;9503;53.560;10.246;2022-08-21T11:53:59;4.55;;;2.05;;
18748;SDS011;9503;53.560;10.246;2022-08-21T11:56:47;4.78;;;2.10;;
18748;SDS011;9503;53.560;10.246;2022-08-21T11:59:22;4.85;;;2.20;;
18748;SDS011;9503;53.560;10.246;2022-08-21T12:01:53;4.78;;;2.00;;
18748;SDS011;9503;53.560;10.246;2022-08-21T12:04:22;5.85;;;2.00;;
18748;SDS011;9503;53.560;10.246;2022-08-21T12:06:55;4.68;;;2.10;;
18748;SDS011;9503;53.560;10.246;2022-08-21T12:09:29;4.25;;;2.28;;
18748;SDS011;9503;53.560;10.246;2022-08-21T12:12:00;6.90;;;2.28;;
18748;SDS011;9503;53.560;10.246;2022-08-21T12:14:35;6.95;;;2.20;;
18748;SDS011;9503;53.560;10.246;2022-08-21T12:17:04;4.47;;;1.85;;
18748;SDS011;9503;53.560;10.246;2022-08-21T12:19:32;4.43;;;1.95;;
18748;SDS011;9503;53.560;10.246;2022-08-21T12:22:07;2.80;;;2.20;;
18748;SDS011;9503;53.560;10.246;2022-08-21T12:24:38;6.68;;;2.47;;
18748;SDS011;9503;53.560;10.246;2022-08-21T12:27:18;4.00;;;1.80;;
18748;SDS011;9503;53.560;10.246;2022-08-21T12:29:51;3.17;;;1.85;;
18748;SDS011;9503;53.560;10.246;2022-08-21T12:32:23;4.43;;;1.83;;
18748;SDS011;9503;53.560;10.246;2022-08-21T12:34:52;4.03;;;2.00;;
18748;SDS011;9503;53.560;10.246;2022-08-21T12:37:27;3.40;;;2.00;;
18748;SDS011;9503;53.560;10.246;2022-08-21T12:40:04;4.30;;;1.83;;
18748;SDS011;9503;53.560;10.246;2022-08-21T12:42:41;2.97;;;1.83;;
18748;SDS011;9503;53.560;10.246;2022-08-21T12:45:17;3.83;;;1.80;;
18748;SDS011;9503;53.560;10.246;2022-08-21T12:47:48;2.53;;;2.03;;
18748;SDS011;9503;53.560;10.246;2022-08-21T12:50:21;4.32;;;1.70;;
18748;SDS011;9503;53.560;10.246;2022-08-21T12:52:58;4.85;;;2.13;;
18748;SDS011;9503;53.560;10.246;2022-08-21T12:55:31;3.58;;;1.88;;
18748;SDS011;9503;53.560;10.246;2022-08-21T12:57:59;7.28;;;2.13;;
18748;SDS011;9503;53.560;10.246;2022-08-21T13:00:28;4.47;;;2.38;;
18748;SDS011;9503;53.560;10.246;2022-08-21T13:02:56;4.28;;;2.08;;
18748;SDS011;9503;53.560;10.246;2022-08-21T13:05:27;3.38;;;1.73;;
18748;SDS011;9503;53.560;10.246;2022-08-21T13:07:58;2.75;;;1.92;;
18748;SDS011;9503;53.560;10.246;2022-08-21T13:10:29;3.15;;;1.73;;
18748;SDS011;9503;53.560;10.246;2022-08-21T13:13:00;4.50;;;2.00;;
18748;SDS011;9503;53.560;10.246;2022-08-21T13:15:30;4.10;;;1.90;;
18748;SDS011;9503;53.560;10.246;2022-08-21T13:17:59;1.60;;;1.50;;
18748;SDS011;9503;53.560;10.246;2022-08-21T13:20:28;3.38;;;2.00;;
18748;SDS011;9503;53.560;10.246;2022-08-21T13:22:59;1.95;;;1.50;;
18748;SDS011;9503;53.560;10.246;2022-08-21T13:25:27;4.80;;;1.98;;
18748;SDS011;9503;53.560;10.246;2022-08-21T13:27:57;6.30;;;1.90;;
18748;SDS011;9503;53.560;10.246;2022-08-21T13:30:26;3.22;;;2.03;;
18748;SDS011;9503;53.560;10.246;2022-08-21T13:32:55;3.20;;;1.80;;
18748;SDS011;9503;53.560;10.246;2022-08-21T13:35:24;3.47;;;2.08;;
18748;SDS011;9503;53.560;10.246;2022-08-21T13:37:54;3.65;;;1.67;;
18748;SDS011;9503;53.560;10.246;2022-08-21T13:40:25;5.05;;;1.70;;
18748;SDS011;9503;53.560;10.246;2022-08-21T13:42:55;2.40;;;1.80;;
18748;SDS011;9503;53.560;10.246;2022-08-21T13:45:23;4.60;;;1.95;;
18748;SDS011;9503;53.560;10.246;2022-08-21T13:47:52;4.15;;;2.00;;
18748;SDS011;9503;53.560;10.246;2022-08-21T13:50:23;5.20;;;2.13;;
18748;SDS011;9503;53.560;10.246;2022-08-21T13:52:56;2.40;;;1.77;;
18748;SDS011;9503;53.560;10.246;2022-08-21T13:55:33;4.95;;;1.60;;
18748;SDS011;9503;53.560;10.246;2022-08-21T13:58:02;2.55;;;1.65;;
18748;SDS011;9503;53.560;10.246;2022-08-21T14:00:31;4.53;;;1.50;;
18748;SDS011;9503;53.560;10.246;2022-08-21T14:03:02;4.90;;;1.75;;
18748;SDS011;9503;53.560;10.246;2022-08-21T14:05:32;4.40;;;1.98;;
18748;SDS011;9503;53.560;10.246;2022-08-21T14:08:03;1.73;;;1.63;;
18748;SDS011;9503;53.560;10.246;2022-08-21T14:10:41;3.38;;;1.65;;
18748;SDS011;9503;53.560;10.246;2022-08-21T14:13:20;3.35;;;1.20;;
18748;SDS011;9503;53.560;10.246;2022-08-21T14:15:56;3.97;;;1.80;;
18748;SDS011;9503;53.560;10.246;2022-08-21T14:18:24;1.73;;;1.40;;
18748;SDS011;9503;53.560;10.246;2022-08-21T14:21:03;5.47;;;1.48;;
18748;SDS011;9503;53.560;10.246;2022-08-21T14:23:31;3.88;;;1.73;;
18748;SDS011;9503;53.560;10.246;2022-08-21T14:25:59;3.47;;;1.52;;
18748;SDS011;9503;53.560;10.246;2022-08-21T14:28:30;2.83;;;1.73;;
18748;SDS011;9503;53.560;10.246;2022-08-21T14:30:59;3.08;;;1.73;;
18748;SDS011;9503;53.560;10.246;2022-08-21T14:33:38;1.60;;;1.40;;
18748;SDS011;9503;53.560;10.246;2022-08-21T14:36:05;3.17;;;1.40;;
18748;SDS011;9503;53.560;10.246;2022-08-21T14:38:34;2.42;;;1.60;;
18748;SDS011;9503;53.560;10.246;2022-08-21T14:41:04;1.98;;;1.50;;
18748;SDS011;9503;53.560;10.246;2022-08-21T14:43:41;2.30;;;1.30;;
18748;SDS011;9503;53.560;10.246;2022-08-21T14:46:08;3.85;;;1.63;;
18748;SDS011;9503;53.560;10.246;2022-08-21T14:48:35;1.77;;;1.50;;
18748;SDS011;9503;53.560;10.246;2022-08-21T14:51:02;3.25;;;1.55;;
18748;SDS011;9503;53.560;10.246;2022-08-21T14:53:28;2.05;;;1.50;;
18748;SDS011;9503;53.560;10.246;2022-08-21T14:55:55;2.35;;;1.50;;
18748;SDS011;9503;53.560;10.246;2022-08-21T14:58:34;4.07;;;1.50;;
18748;SDS011;9503;53.560;10.246;2022-08-21T15:01:04;4.47;;;1.65;;
18748;SDS011;9503;53.560;10.246;2022-08-21T15:03:32;1.90;;;1.38;;
18748;SDS011;9503;53.560;10.246;2022-08-21T15:06:00;2.22;;;1.75;;